Rodman, Iowa
Current Conditions -  °F | °C
As of 7:15 AM on Thursday 27 Nov 2014 (Local Time) from KAXA Reporting Station
Clear Clear  
Wind Chill: -27°   Ceiling: Unl
Heat Index: -9°   Visibility: 10mi
Dew Point: -15°   Wind: 9mph
Humidity: 77%   Direction: 330°NNW
Pressure: 30.5"   Gusts: NA
Location:  43.0372°N, 94.5003°W
Report Text: KAXA 271315Z AUTO 33008KT 10SM CLR M23/M26 A3050 RMK AO2
Loading
Personal Weather Stations






























Interactive Weather Map New forecast layout! Learn more

10-Day Weather Forecast

Advertisements
Track Severe Weather on mobile